createdAt,value
2022-08-16T00:00:52.472Z,18.91
2022-08-16T00:01:51.467Z,19.23
2022-08-16T00:02:51.772Z,19.87
2022-08-16T00:03:51.404Z,18.91
2022-08-16T00:04:51.390Z,18.91
2022-08-16T00:05:57.502Z,19.55
2022-08-16T00:06:52.395Z,18.59
2022-08-16T00:07:56.183Z,19.23
2022-08-16T00:08:52.586Z,18.91
2022-08-16T00:09:52.071Z,19.23
2022-08-16T00:10:51.312Z,19.23
2022-08-16T00:11:52.697Z,19.23
2022-08-16T00:12:51.286Z,19.55
2022-08-16T00:13:53.829Z,19.55
2022-08-16T00:14:51.262Z,19.23
2022-08-16T00:15:54.144Z,19.55
2022-08-16T00:17:05.689Z,19.23
2022-08-16T00:17:56.013Z,19.55
2022-08-16T00:18:51.215Z,19.23
2022-08-16T00:19:54.936Z,19.23
2022-08-16T00:20:51.185Z,19.23
2022-08-16T00:21:51.933Z,19.23
2022-08-16T00:22:51.374Z,19.23
2022-08-16T00:23:51.155Z,19.23
2022-08-16T00:24:51.504Z,19.23
2022-08-16T00:26:35.030Z,18.91
2022-08-16T00:26:52.140Z,19.87
2022-08-16T00:27:51.090Z,19.23
2022-08-16T00:28:54.856Z,18.91
2022-08-16T00:30:08.874Z,19.55
2022-08-16T00:30:52.085Z,18.91
2022-08-16T00:32:00.497Z,19.23
2022-08-16T00:32:52.056Z,19.55
2022-08-16T00:33:51.027Z,18.59
2022-08-16T00:34:53.142Z,19.23
2022-08-16T00:35:50.990Z,19.23
2022-08-16T00:36:50.978Z,19.55
2022-08-16T00:37:57.688Z,19.23
2022-08-16T00:38:51.979Z,19.55
2022-08-16T00:39:58.412Z,19.23
2022-08-16T00:40:53.683Z,18.91
2022-08-16T00:41:50.916Z,18.59
2022-08-16T00:42:50.900Z,19.55
2022-08-16T00:43:50.888Z,19.23
2022-08-16T00:44:50.877Z,19.23
2022-08-16T00:46:00.142Z,18.91
2022-08-16T00:46:53.003Z,19.23
2022-08-16T00:47:51.868Z,18.91
2022-08-16T00:48:50.822Z,18.91
2022-08-16T00:49:56.283Z,18.91
2022-08-16T00:50:55.254Z,19.55
2022-08-16T00:51:53.622Z,19.55
2022-08-16T00:52:51.605Z,18.91
2022-08-16T00:53:50.762Z,18.91
2022-08-16T00:54:50.743Z,19.23
2022-08-16T00:55:50.729Z,19.55
2022-08-16T00:56:58.135Z,19.23
2022-08-16T00:58:00.227Z,18.91
2022-08-16T00:58:51.724Z,18.91
2022-08-16T00:59:59.161Z,18.91
2022-08-16T01:00:54.159Z,19.23
2022-08-16T01:01:50.662Z,19.23
2022-08-16T01:02:50.979Z,18.91
2022-08-16T01:03:50.631Z,19.23
2022-08-16T01:05:09.574Z,19.23
2022-08-16T01:05:51.631Z,18.91
2022-08-16T01:07:01.055Z,19.23
2022-08-16T01:07:53.377Z,18.59
2022-08-16T01:08:50.564Z,19.23
2022-08-16T01:09:50.557Z,18.91
2022-08-16T01:10:50.538Z,18.91
2022-08-16T01:11:53.885Z,19.23
2022-08-16T01:12:50.516Z,19.23
2022-08-16T01:13:50.503Z,18.91
2022-08-16T01:14:50.486Z,18.59
2022-08-16T01:15:52.664Z,19.23
2022-08-16T01:16:50.458Z,18.91
2022-08-16T01:17:56.068Z,18.26
2022-08-16T01:18:50.432Z,18.91
2022-08-16T01:19:50.420Z,18.59
2022-08-16T01:20:50.410Z,19.55
2022-08-16T01:21:50.397Z,18.91
2022-08-16T01:22:52.262Z,19.23
2022-08-16T01:24:01.165Z,19.23
2022-08-16T01:24:53.923Z,19.23
2022-08-16T01:25:59.720Z,18.59
2022-08-16T01:26:51.358Z,18.91
2022-08-16T01:27:50.319Z,19.23
2022-08-16T01:28:50.307Z,18.91
2022-08-16T01:29:58.515Z,18.91
2022-08-16T01:30:51.304Z,18.91
2022-08-16T01:31:50.264Z,19.23
2022-08-16T01:32:56.379Z,19.23
2022-08-16T01:33:51.270Z,18.26
2022-08-16T01:34:56.834Z,18.91
2022-08-16T01:35:52.881Z,18.91
2022-08-16T01:36:58.327Z,18.91
2022-08-16T01:37:53.824Z,19.23
2022-08-16T01:38:56.999Z,18.91
2022-08-16T01:39:51.240Z,18.59
2022-08-16T01:40:50.149Z,18.59
2022-08-16T01:41:50.135Z,18.91
2022-08-16T01:42:53.865Z,19.23
2022-08-16T01:43:53.829Z,19.23
2022-08-16T01:44:50.093Z,18.59
2022-08-16T01:45:57.686Z,19.55
2022-08-16T01:46:51.099Z,18.91
2022-08-16T01:47:51.219Z,18.26
2022-08-16T01:48:50.042Z,19.23
2022-08-16T01:50:42.342Z,18.91
2022-08-16T01:51:09.376Z,18.59
2022-08-16T01:51:51.034Z,19.23
2022-08-16T01:52:50.046Z,18.91
2022-08-16T01:53:54.749Z,19.55
2022-08-16T01:54:50.996Z,18.91
2022-08-16T01:55:54.159Z,19.23
2022-08-16T01:56:49.940Z,19.55
2022-08-16T01:57:53.887Z,18.91
2022-08-16T01:58:50.944Z,19.23
2022-08-16T01:59:49.901Z,19.55
2022-08-16T02:00:49.889Z,18.59
2022-08-16T02:01:52.914Z,18.59
2022-08-16T02:02:52.150Z,18.59
2022-08-16T02:03:50.740Z,19.23
2022-08-16T02:04:54.716Z,19.23
2022-08-16T02:05:51.864Z,19.23
2022-08-16T02:06:49.808Z,18.91
2022-08-16T02:07:49.796Z,18.91
2022-08-16T02:08:51.175Z,18.59
2022-08-16T02:09:58.898Z,19.23
2022-08-16T02:10:50.787Z,18.59
2022-08-16T02:11:52.912Z,18.91
2022-08-16T02:12:59.842Z,18.91
2022-08-16T02:13:50.745Z,18.26
2022-08-16T02:14:49.715Z,18.91
2022-08-16T02:15:49.694Z,18.91
2022-08-16T02:16:49.686Z,18.59
2022-08-16T02:17:49.669Z,18.59
2022-08-16T02:18:49.656Z,18.91
2022-08-16T02:19:59.530Z,18.91
2022-08-16T02:20:50.656Z,18.59
2022-08-16T02:22:09.384Z,18.91
2022-08-16T02:22:50.921Z,18.91
2022-08-16T02:23:49.588Z,18.91
2022-08-16T02:24:50.604Z,18.59
2022-08-16T02:25:52.077Z,18.59
2022-08-16T02:26:49.553Z,18.59
2022-08-16T02:27:51.127Z,19.23
2022-08-16T02:28:49.527Z,19.23
2022-08-16T02:29:49.517Z,18.59
2022-08-16T02:30:51.811Z,18.59
2022-08-16T02:32:02.570Z,18.91
2022-08-16T02:32:51.841Z,18.59
2022-08-16T02:33:50.747Z,18.91
2022-08-16T02:34:50.335Z,19.23
2022-08-16T02:35:53.892Z,19.23
2022-08-16T02:36:50.700Z,18.59
2022-08-16T02:37:52.743Z,18.91
2022-08-16T02:38:49.394Z,18.91
2022-08-16T02:39:53.995Z,18.59
2022-08-16T02:40:49.372Z,18.59
2022-08-16T02:41:53.281Z,18.91
2022-08-16T02:42:49.994Z,18.59
2022-08-16T02:43:49.332Z,18.91
2022-08-16T02:44:49.315Z,19.23
2022-08-16T02:45:49.308Z,18.59
2022-08-16T02:46:49.821Z,19.23
2022-08-16T02:48:00.577Z,18.26
2022-08-16T02:48:50.295Z,18.91
2022-08-16T02:50:52.765Z,18.91
2022-08-16T02:50:53.584Z,18.91
2022-08-16T02:51:50.305Z,18.59
2022-08-16T02:52:49.270Z,18.59
2022-08-16T02:53:49.203Z,18.26
2022-08-16T02:54:55.541Z,18.59
2022-08-16T02:55:50.557Z,18.59
2022-08-16T02:56:49.163Z,18.91
2022-08-16T02:57:54.586Z,18.26
2022-08-16T02:58:49.136Z,18.59
2022-08-16T02:59:49.122Z,18.91
2022-08-16T03:00:50.189Z,18.91
2022-08-16T03:01:49.711Z,18.91
2022-08-16T03:02:55.783Z,18.91
2022-08-16T03:04:40.627Z,18.91
2022-08-16T03:04:52.636Z,18.59
2022-08-16T03:05:49.859Z,18.91
2022-08-16T03:06:49.033Z,18.59
2022-08-16T03:07:50.984Z,18.91
2022-08-16T03:08:52.593Z,18.59
2022-08-16T03:09:48.991Z,18.91
2022-08-16T03:10:48.982Z,18.59
2022-08-16T03:11:48.964Z,18.59
2022-08-16T03:12:56.354Z,18.59
2022-08-16T03:13:51.269Z,18.26
2022-08-16T03:14:48.932Z,18.59
2022-08-16T03:15:49.643Z,18.91
2022-08-16T03:17:00.042Z,18.26
2022-08-16T03:17:53.048Z,17.62
2022-08-16T03:18:48.879Z,18.59
2022-08-16T03:19:59.944Z,18.91
2022-08-16T03:20:55.899Z,18.91
2022-08-16T03:21:51.769Z,18.59
2022-08-16T03:22:49.005Z,19.23
2022-08-16T03:23:48.812Z,18.26
2022-08-16T03:24:48.799Z,18.91
2022-08-16T03:25:48.786Z,18.26
2022-08-16T03:26:48.774Z,18.91
2022-08-16T03:27:48.761Z,18.59
2022-08-16T03:28:48.748Z,18.59
2022-08-16T03:29:54.687Z,18.91
2022-08-16T03:30:49.751Z,18.26
2022-08-16T03:31:52.407Z,18.91
2022-08-16T03:32:51.366Z,18.59
2022-08-16T03:33:48.687Z,19.23
2022-08-16T03:34:49.739Z,18.59
2022-08-16T03:35:48.657Z,18.26
2022-08-16T03:36:49.673Z,18.91
2022-08-16T03:38:01.746Z,18.59
2022-08-16T03:38:49.646Z,18.26
2022-08-16T03:39:48.646Z,18.59
2022-08-16T03:40:49.625Z,18.59
2022-08-16T03:41:49.678Z,18.59
2022-08-16T03:43:18.834Z,18.59
2022-08-16T03:43:51.135Z,18.59
2022-08-16T03:44:49.358Z,18.91
2022-08-16T03:45:48.529Z,18.91
2022-08-16T03:46:49.857Z,18.91
2022-08-16T03:47:48.508Z,18.26
2022-08-16T03:48:49.516Z,18.59
2022-08-16T03:49:51.582Z,18.91
2022-08-16T03:50:59.997Z,18.91
2022-08-16T03:51:49.480Z,18.59
2022-08-16T03:52:48.536Z,18.59
2022-08-16T03:53:57.808Z,18.26
2022-08-16T03:54:53.640Z,18.59
2022-08-16T03:55:49.429Z,18.26
2022-08-16T03:56:57.781Z,18.59
2022-08-16T03:57:52.236Z,18.59
2022-08-16T03:58:48.498Z,18.26
2022-08-16T03:59:48.342Z,18.26
2022-08-16T04:00:48.444Z,18.59
2022-08-16T04:01:49.413Z,18.59
2022-08-16T04:02:48.584Z,18.59
2022-08-16T04:03:48.291Z,18.59
2022-08-16T04:04:48.282Z,18.26
2022-08-16T04:05:48.269Z,18.59
2022-08-16T04:06:48.251Z,18.59
2022-08-16T04:07:48.241Z,18.91
2022-08-16T04:08:48.233Z,18.59
2022-08-16T04:09:48.216Z,18.26
2022-08-16T04:10:48.202Z,18.91
2022-08-16T04:11:48.189Z,17.94
2022-08-16T04:13:04.343Z,18.26
2022-08-16T04:14:01.799Z,18.59
2022-08-16T04:14:49.188Z,18.26
2022-08-16T04:15:48.163Z,18.26
2022-08-16T04:16:48.125Z,18.26
2022-08-16T04:17:48.114Z,18.59
2022-08-16T04:18:48.100Z,17.94
2022-08-16T04:19:48.089Z,18.26
2022-08-16T04:20:48.073Z,18.26
2022-08-16T04:21:48.063Z,18.91
2022-08-16T04:22:48.882Z,18.26
2022-08-16T04:23:48.036Z,18.59
2022-08-16T04:24:54.105Z,18.59
2022-08-16T04:25:49.040Z,18.59
2022-08-16T04:26:47.998Z,18.59
2022-08-16T04:27:55.774Z,18.91
2022-08-16T04:28:56.710Z,18.59
2022-08-16T04:29:48.990Z,18.26
2022-08-16T04:30:47.944Z,19.23
2022-08-16T04:31:56.860Z,18.59
2022-08-16T04:32:49.981Z,18.26
2022-08-16T04:33:50.827Z,18.26
2022-08-16T04:34:47.897Z,18.26
2022-08-16T04:35:49.564Z,18.91
2022-08-16T04:36:48.826Z,18.91
2022-08-16T04:37:47.855Z,17.94
2022-08-16T04:38:49.935Z,17.94
2022-08-16T04:39:55.396Z,18.26
2022-08-16T04:40:50.128Z,17.62
2022-08-16T04:41:47.801Z,18.59
2022-08-16T04:42:48.831Z,18.59
2022-08-16T04:43:47.780Z,18.91
2022-08-16T04:44:54.420Z,17.94
2022-08-16T04:46:00.348Z,18.26
2022-08-16T04:47:00.661Z,18.91
2022-08-16T04:47:48.758Z,18.59
2022-08-16T04:48:48.742Z,18.26
2022-08-16T04:49:47.704Z,18.26
2022-08-16T04:50:47.692Z,18.59
2022-08-16T04:51:53.618Z,17.94
2022-08-16T04:52:48.863Z,18.26
2022-08-16T04:53:47.651Z,18.26
2022-08-16T04:54:47.636Z,18.59
2022-08-16T04:55:47.620Z,18.59
2022-08-16T04:56:48.773Z,18.26
2022-08-16T04:57:52.601Z,18.59
2022-08-16T04:58:48.614Z,18.26
2022-08-16T04:59:47.569Z,18.26
2022-08-16T05:00:47.560Z,18.59
2022-08-16T05:01:58.039Z,18.59
2022-08-16T05:02:48.600Z,18.26
2022-08-16T05:04:00.391Z,18.26
2022-08-16T05:04:48.538Z,18.59
2022-08-16T05:05:59.086Z,17.94
2022-08-16T05:06:48.509Z,17.62
2022-08-16T05:07:58.380Z,18.59
2022-08-16T05:08:48.600Z,18.26
2022-08-16T05:09:49.100Z,18.59
2022-08-16T05:10:47.428Z,17.94
2022-08-16T05:11:47.416Z,18.59
2022-08-16T05:12:47.533Z,18.26
2022-08-16T05:13:47.391Z,18.26
2022-08-16T05:15:01.697Z,18.59
2022-08-16T05:15:49.692Z,17.94
2022-08-16T05:16:47.351Z,18.26
2022-08-16T05:17:47.341Z,18.26
2022-08-16T05:18:48.369Z,18.26
2022-08-16T05:19:57.481Z,18.26
2022-08-16T05:21:01.395Z,18.59
2022-08-16T05:21:48.317Z,18.26
2022-08-16T05:22:47.473Z,17.94
2022-08-16T05:23:56.080Z,18.59
2022-08-16T05:24:48.280Z,18.59
2022-08-16T05:25:48.997Z,18.59
2022-08-16T05:26:51.309Z,18.26
2022-08-16T05:27:47.208Z,18.26
2022-08-16T05:28:47.199Z,18.26
2022-08-16T05:29:57.878Z,18.91
2022-08-16T05:30:50.422Z,18.26
2022-08-16T05:31:48.369Z,18.59
2022-08-16T05:32:47.445Z,18.26
2022-08-16T05:33:47.134Z,18.26
2022-08-16T05:34:48.149Z,18.59
2022-08-16T05:35:54.565Z,18.26
2022-08-16T05:36:48.122Z,17.94
2022-08-16T05:37:47.082Z,17.62
2022-08-16T05:38:47.069Z,17.94
2022-08-16T05:39:47.111Z,18.26
2022-08-16T05:40:59.541Z,18.26
2022-08-16T05:41:48.980Z,18.59
2022-08-16T05:42:47.744Z,17.94
2022-08-16T05:43:47.932Z,18.26
2022-08-16T05:44:46.989Z,18.26
2022-08-16T05:45:46.976Z,18.26
2022-08-16T05:46:46.963Z,18.26
2022-08-16T05:47:46.957Z,18.26
2022-08-16T05:48:53.179Z,18.26
2022-08-16T05:49:50.633Z,18.26
2022-08-16T05:50:46.920Z,18.26
2022-08-16T05:51:47.933Z,17.94
2022-08-16T05:52:47.119Z,17.94
2022-08-16T05:53:46.874Z,17.94
2022-08-16T05:54:58.501Z,17.30
2022-08-16T05:55:47.877Z,18.26
2022-08-16T05:56:50.051Z,18.26
2022-08-16T05:57:46.823Z,18.26
2022-08-16T05:58:46.810Z,18.26
2022-08-16T05:59:46.797Z,18.26
2022-08-16T06:00:46.785Z,18.26
2022-08-16T06:01:46.828Z,17.94
2022-08-16T06:02:46.887Z,17.94
2022-08-16T06:03:46.751Z,18.26
2022-08-16T06:04:46.734Z,17.62
2022-08-16T06:05:46.724Z,17.94
2022-08-16T06:06:55.760Z,18.26
2022-08-16T06:07:58.265Z,18.26
2022-08-16T06:08:47.716Z,18.26
2022-08-16T06:09:46.675Z,18.26
2022-08-16T06:11:06.330Z,17.62
2022-08-16T06:11:47.672Z,18.26
2022-08-16T06:12:46.680Z,18.26
2022-08-16T06:13:47.646Z,18.59
2022-08-16T06:14:46.604Z,17.94
2022-08-16T06:15:46.588Z,18.26
2022-08-16T06:16:50.757Z,17.94
2022-08-16T06:17:46.573Z,18.26
2022-08-16T06:18:46.554Z,18.26
2022-08-16T06:19:46.565Z,18.59
2022-08-16T06:20:55.335Z,17.94
2022-08-16T06:21:54.904Z,17.94
2022-08-16T06:22:57.193Z,17.94
2022-08-16T06:23:47.529Z,18.59
2022-08-16T06:24:54.033Z,17.94
2022-08-16T06:25:53.078Z,18.26
2022-08-16T06:26:58.124Z,17.94
2022-08-16T06:27:57.372Z,17.94
2022-08-16T06:28:47.454Z,18.26
2022-08-16T06:29:49.938Z,18.91
2022-08-16T06:30:46.397Z,18.26
2022-08-16T06:31:48.944Z,17.94
2022-08-16T06:32:48.663Z,18.26
2022-08-16T06:33:46.360Z,18.26
2022-08-16T06:34:57.499Z,17.94
2022-08-16T06:35:47.382Z,17.94
2022-08-16T06:36:46.326Z,18.26
2022-08-16T06:37:51.535Z,17.94
2022-08-16T06:38:56.085Z,18.59
2022-08-16T06:39:49.509Z,17.94
2022-08-16T06:40:47.947Z,18.26
2022-08-16T06:41:46.260Z,17.94
2022-08-16T06:42:47.777Z,17.94
2022-08-16T06:43:46.234Z,17.62
2022-08-16T06:44:46.214Z,17.94
2022-08-16T06:45:46.214Z,18.59
2022-08-16T06:46:50.562Z,17.94
2022-08-16T06:47:53.205Z,18.26
2022-08-16T06:48:51.139Z,18.59
2022-08-16T06:49:53.830Z,18.26
2022-08-16T06:50:47.165Z,18.26
2022-08-16T06:51:48.861Z,17.62
2022-08-16T06:53:00.449Z,18.59
2022-08-16T06:53:47.121Z,18.26
2022-08-16T06:54:46.395Z,18.26
2022-08-16T06:55:46.083Z,18.26
2022-08-16T06:56:46.060Z,17.94
2022-08-16T06:57:46.054Z,18.26
2022-08-16T06:58:46.037Z,17.62
2022-08-16T06:59:52.197Z,18.26
2022-08-16T07:00:46.093Z,18.59
2022-08-16T07:01:53.601Z,18.59
2022-08-16T07:02:51.809Z,17.94
2022-08-16T07:03:55.602Z,18.59
2022-08-16T07:04:46.987Z,18.26
2022-08-16T07:05:45.947Z,17.94
2022-08-16T07:06:45.927Z,17.94
2022-08-16T07:07:45.923Z,18.26
2022-08-16T07:08:45.907Z,17.62
2022-08-16T07:09:45.927Z,18.59
2022-08-16T07:10:45.883Z,17.62
2022-08-16T07:11:51.537Z,17.30
2022-08-16T07:12:47.187Z,18.59
2022-08-16T07:14:23.523Z,18.26
2022-08-16T07:14:46.856Z,17.62
2022-08-16T07:15:50.488Z,18.26
2022-08-16T07:16:45.808Z,17.94
2022-08-16T07:17:45.790Z,18.26
2022-08-16T07:19:01.489Z,18.26
2022-08-16T07:20:03.531Z,18.59
2022-08-16T07:20:47.917Z,17.62
2022-08-16T07:21:59.352Z,18.26
2022-08-16T07:22:50.809Z,18.26
2022-08-16T07:23:47.007Z,17.94
2022-08-16T07:24:46.139Z,17.94
2022-08-16T07:25:45.691Z,17.94
2022-08-16T07:26:48.463Z,18.59
2022-08-16T07:27:45.666Z,17.94
2022-08-16T07:28:45.651Z,17.94
2022-08-16T07:29:45.646Z,17.94
2022-08-16T07:30:46.990Z,17.94
2022-08-16T07:31:45.617Z,17.30
2022-08-16T07:32:51.513Z,18.26
2022-08-16T07:33:53.253Z,18.26
2022-08-16T07:34:48.189Z,18.59
2022-08-16T07:35:49.738Z,17.62
2022-08-16T07:36:45.553Z,18.59
2022-08-16T07:37:46.572Z,18.59
2022-08-16T07:38:45.528Z,18.26
2022-08-16T07:39:45.574Z,18.26
2022-08-16T07:40:59.478Z,17.62
2022-08-16T07:41:46.517Z,18.26
2022-08-16T07:42:45.650Z,17.94
2022-08-16T07:43:45.456Z,17.94
2022-08-16T07:44:48.974Z,17.62
2022-08-16T07:45:49.461Z,17.94
2022-08-16T07:46:46.449Z,17.62
2022-08-16T07:47:45.402Z,18.26
2022-08-16T07:48:47.670Z,17.94
2022-08-16T07:49:57.864Z,17.94
2022-08-16T07:50:56.493Z,17.62
2022-08-16T07:51:46.388Z,17.94
2022-08-16T07:52:45.346Z,18.59
2022-08-16T07:53:45.329Z,17.94
2022-08-16T07:54:45.976Z,17.94
2022-08-16T07:55:47.662Z,18.26
2022-08-16T07:56:45.292Z,17.62
2022-08-16T07:57:59.957Z,17.94
2022-08-16T07:58:46.297Z,18.26
2022-08-16T07:59:46.122Z,18.26
2022-08-16T08:00:46.109Z,18.26
2022-08-16T08:01:45.235Z,18.26
2022-08-16T08:02:45.335Z,17.94
2022-08-16T08:03:48.765Z,17.62
2022-08-16T08:04:45.194Z,18.26
2022-08-16T08:05:45.188Z,18.26
2022-08-16T08:06:45.181Z,17.94
2022-08-16T08:07:45.438Z,17.94
2022-08-16T08:08:50.360Z,17.94
2022-08-16T08:09:46.170Z,17.62
2022-08-16T08:10:45.124Z,18.26
2022-08-16T08:12:00.864Z,18.26
2022-08-16T08:12:46.123Z,18.26
2022-08-16T08:13:45.075Z,18.26
2022-08-16T08:14:45.064Z,18.26
2022-08-16T08:15:52.652Z,17.30
2022-08-16T08:16:46.066Z,18.26
2022-08-16T08:17:45.033Z,17.94
2022-08-16T08:18:50.322Z,17.62
2022-08-16T08:19:53.146Z,17.94
2022-08-16T08:20:46.036Z,18.26
2022-08-16T08:22:00.754Z,17.94
2022-08-16T08:22:45.996Z,17.62
2022-08-16T08:23:44.947Z,18.26
2022-08-16T08:24:44.947Z,17.62
2022-08-16T08:25:53.458Z,17.94
2022-08-16T08:26:50.323Z,18.26
2022-08-16T08:27:44.902Z,17.94
2022-08-16T08:28:44.889Z,17.94
2022-08-16T08:29:44.877Z,17.94
2022-08-16T08:30:56.874Z,18.59
2022-08-16T08:31:45.895Z,17.94
2022-08-16T08:32:58.397Z,17.94
2022-08-16T08:33:47.492Z,18.26
2022-08-16T08:34:46.524Z,17.94
2022-08-16T08:35:44.806Z,18.26
2022-08-16T08:36:44.800Z,17.94
2022-08-16T08:37:55.039Z,18.26
2022-08-16T08:38:46.338Z,17.94
2022-08-16T08:39:55.271Z,17.62
2022-08-16T08:40:45.884Z,17.62
2022-08-16T08:41:49.276Z,17.94
2022-08-16T08:42:44.718Z,17.94
2022-08-16T08:43:44.718Z,17.94
2022-08-16T08:44:44.692Z,17.62
2022-08-16T08:45:46.892Z,17.94
2022-08-16T08:46:44.668Z,17.94
2022-08-16T08:47:45.687Z,18.26
2022-08-16T08:48:45.676Z,17.62
2022-08-16T08:49:50.371Z,18.26
2022-08-16T08:50:50.164Z,17.62
2022-08-16T08:51:44.612Z,17.94
2022-08-16T08:52:44.735Z,18.26
2022-08-16T08:53:44.582Z,17.94
2022-08-16T08:54:44.574Z,18.26
2022-08-16T08:55:44.557Z,18.59
2022-08-16T08:56:45.775Z,18.26
2022-08-16T08:57:44.526Z,18.59
2022-08-16T08:58:54.691Z,18.26
2022-08-16T08:59:45.533Z,18.59
2022-08-16T09:00:50.394Z,17.94
2022-08-16T09:01:57.602Z,17.62
2022-08-16T09:02:45.628Z,17.62
2022-08-16T09:03:45.515Z,17.62
2022-08-16T09:04:44.445Z,18.26
2022-08-16T09:05:46.646Z,18.59
2022-08-16T09:06:45.509Z,17.94
2022-08-16T09:08:00.854Z,17.94
2022-08-16T09:08:47.471Z,17.94
2022-08-16T09:09:44.385Z,18.59
2022-08-16T09:10:44.373Z,18.59
2022-08-16T09:11:45.663Z,17.94
2022-08-16T09:12:47.330Z,17.94
2022-08-16T09:13:47.257Z,18.26
2022-08-16T09:14:47.164Z,17.62
2022-08-16T09:15:45.336Z,17.94
2022-08-16T09:17:01.149Z,17.94
2022-08-16T09:17:49.078Z,18.26
2022-08-16T09:18:45.315Z,18.26
2022-08-16T09:19:44.260Z,17.62
2022-08-16T09:20:59.410Z,18.26
2022-08-16T09:21:45.265Z,17.94
2022-08-16T09:22:51.281Z,18.26
2022-08-16T09:23:45.235Z,18.26
2022-08-16T09:24:51.895Z,17.62
2022-08-16T09:25:45.210Z,17.62
2022-08-16T09:26:46.466Z,18.59
2022-08-16T09:27:46.823Z,17.94
2022-08-16T09:29:16.687Z,18.26
2022-08-16T09:29:45.846Z,18.26
2022-08-16T09:30:45.082Z,17.62
2022-08-16T09:31:44.105Z,17.94
2022-08-16T09:32:46.986Z,17.94
2022-08-16T09:33:44.088Z,17.94
2022-08-16T09:34:44.065Z,17.94
2022-08-16T09:35:44.060Z,17.62
2022-08-16T09:36:46.031Z,17.94
2022-08-16T09:37:44.026Z,18.59
2022-08-16T09:38:45.043Z,18.26
2022-08-16T09:39:47.029Z,18.26
2022-08-16T09:40:45.195Z,17.94
2022-08-16T09:41:43.978Z,18.26
2022-08-16T09:42:56.429Z,18.26
2022-08-16T09:43:59.534Z,18.26
2022-08-16T09:45:12.659Z,17.94
2022-08-16T09:45:44.959Z,18.26
2022-08-16T09:46:48.497Z,17.94
2022-08-16T09:47:57.343Z,17.94
2022-08-16T09:48:51.195Z,18.26
2022-08-16T09:49:44.906Z,17.62
2022-08-16T09:50:44.893Z,17.62
2022-08-16T09:51:43.846Z,18.26
2022-08-16T09:52:47.795Z,17.94
2022-08-16T09:53:43.821Z,17.62
2022-08-16T09:54:45.299Z,17.94
2022-08-16T09:55:44.622Z,17.94
2022-08-16T09:56:52.151Z,17.94
2022-08-16T09:57:52.855Z,17.94
2022-08-16T09:59:05.771Z,18.26
2022-08-16T09:59:44.778Z,17.62
2022-08-16T10:00:44.678Z,17.62
2022-08-16T10:01:45.997Z,17.94
2022-08-16T10:02:48.132Z,18.26
2022-08-16T10:04:02.620Z,18.26
2022-08-16T10:04:54.702Z,18.59
2022-08-16T10:05:44.692Z,17.94
2022-08-16T10:06:46.203Z,18.26
2022-08-16T10:07:45.135Z,17.94
2022-08-16T10:09:04.385Z,17.94
2022-08-16T10:09:54.344Z,17.94
2022-08-16T10:10:44.636Z,17.94
2022-08-16T10:11:50.332Z,18.26
2022-08-16T10:12:44.602Z,18.59
2022-08-16T10:13:43.564Z,17.94
2022-08-16T10:14:43.552Z,17.94
2022-08-16T10:15:43.534Z,17.94
2022-08-16T10:16:44.555Z,18.26
2022-08-16T10:17:43.515Z,18.59
2022-08-16T10:19:00.351Z,17.94
2022-08-16T10:19:44.518Z,18.26
2022-08-16T10:20:43.474Z,18.26
2022-08-16T10:21:43.455Z,18.26
2022-08-16T10:22:43.437Z,17.62
2022-08-16T10:23:43.434Z,17.62
2022-08-16T10:24:56.031Z,17.30
2022-08-16T10:27:16.173Z,17.94
2022-08-16T10:27:20.523Z,17.94
2022-08-16T10:27:48.570Z,17.94
2022-08-16T10:28:44.717Z,17.62
2022-08-16T10:30:00.607Z,17.94
2022-08-16T10:30:44.378Z,18.26
2022-08-16T10:31:45.876Z,18.59
2022-08-16T10:32:43.318Z,17.94
2022-08-16T10:33:43.301Z,18.26
2022-08-16T10:34:43.288Z,17.62
2022-08-16T10:35:46.739Z,17.62
2022-08-16T10:36:43.264Z,17.62
2022-08-16T10:37:43.356Z,18.26
2022-08-16T10:38:43.237Z,17.94
2022-08-16T10:39:43.278Z,18.59
2022-08-16T10:40:45.524Z,17.62
2022-08-16T10:41:43.208Z,17.94
2022-08-16T10:42:43.182Z,17.94
2022-08-16T10:43:43.169Z,18.26
2022-08-16T10:44:53.859Z,17.94
2022-08-16T10:45:43.145Z,18.26
2022-08-16T10:46:44.175Z,17.62
2022-08-16T10:47:43.118Z,17.62
2022-08-16T10:48:46.700Z,18.59
2022-08-16T10:49:43.088Z,17.94
2022-08-16T10:50:43.075Z,18.26
2022-08-16T10:52:03.173Z,18.26
2022-08-16T10:52:44.080Z,17.94
2022-08-16T10:53:43.036Z,17.94
2022-08-16T10:54:59.174Z,17.94
2022-08-16T10:55:45.522Z,18.26
2022-08-16T10:56:52.415Z,18.26
2022-08-16T10:57:44.073Z,18.26
2022-08-16T10:58:42.973Z,18.26
2022-08-16T10:59:51.740Z,17.62
2022-08-16T11:00:43.981Z,18.26
2022-08-16T11:01:44.255Z,17.62
2022-08-16T11:03:42.147Z,18.26
2022-08-16T11:03:45.736Z,18.26
2022-08-16T11:07:06.539Z,17.62
2022-08-16T11:07:51.507Z,17.94
2022-08-16T11:08:45.809Z,18.26
2022-08-16T11:09:43.203Z,18.59
2022-08-16T11:11:05.344Z,18.59
2022-08-16T11:12:42.785Z,17.94
2022-08-16T11:13:59.833Z,18.26
2022-08-16T11:15:49.764Z,18.26
2022-08-16T11:17:44.786Z,17.94
2022-08-16T11:19:03.815Z,17.62
2022-08-16T11:20:48.845Z,18.59
2022-08-16T11:22:48.189Z,17.94
2022-08-16T11:23:58.303Z,18.26
2022-08-16T11:24:45.195Z,18.26
2022-08-16T11:26:42.643Z,17.62
2022-08-16T11:27:42.628Z,18.26
2022-08-16T11:29:42.558Z,18.26
2022-08-16T11:30:42.546Z,18.91
2022-08-16T11:31:45.502Z,18.26
2022-08-16T11:32:42.524Z,17.94
2022-08-16T11:33:57.858Z,17.94
2022-08-16T11:35:05.812Z,17.94
2022-08-16T11:35:44.034Z,17.94
2022-08-16T11:36:59.424Z,17.94
2022-08-16T11:38:51.773Z,17.94
2022-08-16T11:39:43.501Z,18.59
2022-08-16T11:40:44.502Z,17.94
2022-08-16T11:41:43.542Z,17.94
2022-08-16T11:42:42.400Z,18.26
2022-08-16T11:43:42.380Z,18.59
2022-08-16T11:44:56.069Z,17.94
2022-08-16T11:45:43.377Z,17.94
2022-08-16T11:46:46.878Z,17.94
2022-08-16T11:47:42.396Z,18.26
2022-08-16T11:48:42.313Z,18.26
2022-08-16T11:49:42.306Z,17.62
2022-08-16T11:50:42.287Z,17.94
2022-08-16T11:51:42.281Z,17.94
2022-08-16T11:52:46.689Z,17.94
2022-08-16T11:53:42.257Z,18.26
2022-08-16T11:54:42.241Z,18.26
2022-08-16T11:55:44.075Z,18.26
2022-08-16T11:56:52.790Z,18.59
2022-08-16T11:57:43.241Z,17.94
2022-08-16T11:58:42.187Z,17.94
2022-08-16T11:59:42.185Z,17.94
2022-08-16T12:00:51.305Z,18.26
2022-08-16T12:01:55.044Z,18.26
2022-08-16T12:02:45.941Z,17.94
2022-08-16T12:03:42.214Z,18.26
2022-08-16T12:04:42.129Z,17.94
2022-08-16T12:05:42.093Z,17.94
2022-08-16T12:06:42.094Z,17.94
2022-08-16T12:07:42.143Z,17.94
2022-08-16T12:08:42.659Z,17.94
2022-08-16T12:09:43.564Z,17.30
2022-08-16T12:10:43.207Z,17.94
2022-08-16T12:11:42.030Z,17.94
2022-08-16T12:12:42.010Z,18.26
2022-08-16T12:13:41.998Z,17.94
2022-08-16T12:14:41.992Z,18.26
2022-08-16T12:15:41.972Z,17.62
2022-08-16T12:16:48.606Z,17.94
2022-08-16T12:17:42.990Z,17.94
2022-08-16T12:18:41.975Z,17.94
2022-08-16T12:19:41.927Z,18.26
2022-08-16T12:20:41.904Z,18.26
2022-08-16T12:21:57.744Z,17.94
2022-08-16T12:22:42.917Z,18.26
2022-08-16T12:23:41.878Z,17.94
2022-08-16T12:24:41.876Z,18.26
2022-08-16T12:25:41.852Z,17.94
2022-08-16T12:26:41.836Z,18.26
2022-08-16T12:27:41.824Z,18.26
2022-08-16T12:28:54.125Z,18.59
2022-08-16T12:29:42.828Z,17.94
2022-08-16T12:30:41.786Z,18.59
2022-08-16T12:32:01.510Z,17.94
2022-08-16T12:32:42.796Z,17.94
2022-08-16T12:33:44.494Z,18.26
2022-08-16T12:34:41.740Z,18.26
2022-08-16T12:35:42.757Z,17.94
2022-08-16T12:36:41.713Z,17.94
2022-08-16T12:37:41.754Z,18.59
2022-08-16T12:38:47.947Z,17.94
2022-08-16T12:39:47.146Z,18.26
2022-08-16T12:40:42.704Z,17.94
2022-08-16T12:41:45.024Z,18.26
2022-08-16T12:42:41.648Z,18.59
2022-08-16T12:43:45.256Z,17.94
2022-08-16T12:44:41.607Z,18.91
2022-08-16T12:45:41.613Z,18.26
2022-08-16T12:46:41.589Z,17.62
2022-08-16T12:47:41.578Z,18.26
2022-08-16T12:48:42.222Z,18.91
2022-08-16T12:49:42.203Z,18.26
2022-08-16T12:50:41.543Z,17.94
2022-08-16T12:51:58.926Z,17.94
2022-08-16T12:52:52.189Z,17.94
2022-08-16T12:53:42.535Z,17.94
2022-08-16T12:54:41.488Z,18.59
2022-08-16T12:55:42.027Z,18.59
2022-08-16T12:56:41.474Z,18.26
2022-08-16T12:57:41.453Z,17.94
2022-08-16T12:58:49.420Z,17.94
2022-08-16T12:59:42.454Z,18.59
2022-08-16T13:00:41.462Z,18.26
2022-08-16T13:01:41.398Z,18.26
2022-08-16T13:02:41.386Z,18.26